Time;durP1;ratioP1;P1;durP2;ratioP2;P2;SDS_P1;SDS_P2;PMS_P1;PMS_P2;Temp;Humidity;BMP_temperature;BMP_pressure;BME280_temperature;BME280_humidity;BME280_pressure;Samples;Min_cycle;Max_cycle;Signal;HPM_P1;HPM_P2
2023/05/27 00:00:26;;;;;;;8.20;6.90;;;;;;;17.93;55.75;99372.02;107471;1253;73896;-40
2023/05/27 00:02:54;;;;;;;8.60;7.00;;;;;;;17.89;56.13;99376.92;107467;1258;66610;-41
2023/05/27 00:05:21;;;;;;;7.70;6.90;;;;;;;17.86;56.37;99382.15;107451;1253;72704;-41
2023/05/27 00:07:49;;;;;;;9.40;6.40;;;;;;;17.82;56.55;99385.92;107463;1254;60434;-41
2023/05/27 00:10:17;;;;;;;10.20;7.20;;;;;;;17.79;56.47;99383.61;107501;1254;60330;-41
2023/05/27 00:12:44;;;;;;;8.30;6.80;;;;;;;17.74;57.00;99381.00;107471;1254;72560;-41
2023/05/27 00:15:12;;;;;;;7.60;6.80;;;;;;;17.65;57.25;99382.89;107476;1253;65950;-41
2023/05/27 00:17:42;;;;;;;7.70;6.90;;;;;;;17.58;57.89;99383.00;107479;1253;72721;-41
2023/05/27 00:20:12;;;;;;;11.90;7.00;;;;;;;17.53;59.27;99382.02;107464;1253;61206;-41
2023/05/27 00:22:41;;;;;;;9.10;6.60;;;;;;;17.46;60.32;99376.92;107441;1254;60596;-41
2023/05/27 00:25:09;;;;;;;8.30;6.20;;;;;;;17.43;60.73;99376.64;107437;1253;72641;-41
2023/05/27 00:27:37;;;;;;;8.70;6.80;;;;;;;17.45;60.42;99373.72;107465;1253;66606;-41
2023/05/27 00:30:05;;;;;;;8.60;7.00;;;;;;;17.48;59.92;99373.54;107374;1253;72725;-41
2023/05/27 00:32:33;;;;;;;8.10;6.80;;;;;;;17.49;59.40;99370.02;107553;1254;60315;-41
2023/05/27 00:35:03;;;;;;;9.90;6.90;;;;;;;17.51;59.14;99370.77;107421;1256;60395;-41
2023/05/27 00:37:31;;;;;;;9.10;7.10;;;;;;;17.51;58.91;99365.44;107443;1257;73840;-41
2023/05/27 00:39:59;;;;;;;7.70;6.00;;;;;;;17.52;58.96;99364.81;107410;1256;66827;-41
2023/05/27 00:42:27;;;;;;;9.70;7.50;;;;;;;17.52;58.93;99360.11;107399;1257;72793;-41
2023/05/27 00:44:54;;;;;;;7.20;6.40;;;;;;;17.50;58.88;99356.14;107408;1259;60393;-41
2023/05/27 00:47:23;;;;;;;7.80;6.50;;;;;;;17.48;58.98;99356.46;107303;1256;59667;-41
2023/05/27 00:49:52;;;;;;;8.00;6.70;;;;;;;17.44;59.13;99357.52;107364;1256;73931;-41
2023/05/27 00:52:20;;;;;;;10.60;6.80;;;;;;;17.42;59.14;99352.45;107388;1256;66278;-39
2023/05/27 00:54:48;;;;;;;9.10;7.20;;;;;;;17.39;59.21;99356.06;107308;1256;72761;-39
2023/05/27 00:57:15;;;;;;;7.40;6.60;;;;;;;17.38;59.32;99346.60;107190;1260;60408;-39
2023/05/27 00:59:43;;;;;;;9.30;6.90;;;;;;;17.37;59.52;99345.05;107401;1256;59337;-40
2023/05/27 01:02:11;;;;;;;8.00;6.60;;;;;;;17.35;59.63;99341.30;107389;1256;73299;-39
2023/05/27 01:04:38;;;;;;;8.70;6.70;;;;;;;17.33;59.71;99341.70;107405;1256;66428;-39
2023/05/27 01:07:18;;;;;;;9.90;6.60;;;;;;;17.32;59.76;99341.42;107391;1255;72677;-40
2023/05/27 01:09:53;;;;;;;8.20;6.60;;;;;;;17.30;59.92;99338.52;107399;1255;60457;-40
2023/05/27 01:13:06;;;;;;;6.90;5.60;;;;;;;17.31;59.84;99336.66;107305;1256;60295;-40
2023/05/27 01:15:33;;;;;;;6.90;5.90;;;;;;;17.37;59.80;99333.38;107231;1256;73944;-40
2023/05/27 01:18:03;;;;;;;11.00;7.00;;;;;;;17.36;59.80;99334.02;107383;1256;67693;-40
2023/05/27 01:20:30;;;;;;;8.50;5.90;;;;;;;17.39;59.72;99327.58;107422;1259;72746;-40
2023/05/27 01:22:59;;;;;;;7.90;6.00;;;;;;;17.40;59.61;99323.64;107256;1255;60460;-40
2023/05/27 01:25:28;;;;;;;7.30;6.10;;;;;;;17.41;59.36;99327.32;107287;1256;60364;-40
2023/05/27 01:27:56;;;;;;;7.30;5.90;;;;;;;17.42;59.13;99326.98;107347;1258;73855;-40
2023/05/27 01:30:24;;;;;;;8.00;6.40;;;;;;;17.42;59.19;99328.17;107409;1256;68014;-40
2023/05/27 01:33:02;;;;;;;7.00;6.20;;;;;;;17.42;59.24;99328.88;107313;1257;71928;-40
2023/05/27 01:35:45;;;;;;;9.20;6.10;;;;;;;17.39;59.37;99327.02;107401;1259;60437;-40
2023/05/27 01:38:15;;;;;;;11.40;6.40;;;;;;;17.37;59.65;99329.38;107432;1256;60278;-40
2023/05/27 01:40:43;;;;;;;;;;;;;;;17.34;59.78;99324.32;107410;1253;72657;-40
2023/05/27 01:43:11;;;;;;;7.20;6.30;;;;;;;17.27;60.09;99334.41;107293;1254;66979;-40
2023/05/27 01:45:40;;;;;;;7.10;6.30;;;;;;;17.22;60.11;99333.98;107536;1253;72684;-40
2023/05/27 01:48:09;;;;;;;6.70;6.00;;;;;;;17.23;60.07;99331.54;107451;1254;60502;-41
2023/05/27 01:50:38;;;;;;;8.30;6.20;;;;;;;17.23;60.01;99331.77;107510;1253;60275;-40
2023/05/27 01:53:06;;;;;;;8.60;6.70;;;;;;;17.21;59.99;99331.39;107481;1253;73851;-40
2023/05/27 01:55:34;;;;;;;10.60;6.20;;;;;;;17.19;60.11;99331.34;107354;1253;66294;-40
2023/05/27 01:58:02;;;;;;;9.10;5.90;;;;;;;17.22;60.14;99335.77;107320;1253;72685;-40
2023/05/27 02:00:30;;;;;;;8.60;5.80;;;;;;;17.25;60.05;99333.17;107355;1253;60308;-40
2023/05/27 02:02:57;;;;;;;6.80;6.00;;;;;;;17.25;60.02;99331.29;107340;1259;60377;-40
2023/05/27 02:05:25;;;;;;;8.80;6.40;;;;;;;17.26;59.98;99332.70;107482;1253;72310;-40
2023/05/27 02:07:53;;;;;;;7.30;6.50;;;;;;;17.24;59.86;99334.35;107529;1258;66754;-40
2023/05/27 02:10:21;;;;;;;7.80;6.20;;;;;;;17.13;59.98;99342.11;107501;1253;71485;-39
2023/05/27 02:12:48;;;;;;;8.60;6.50;;;;;;;16.96;60.35;99346.16;107351;1253;60447;-40
2023/05/27 02:15:17;;;;;;;15.10;7.20;;;;;;;16.85;60.66;99352.58;107358;1253;60450;-40
2023/05/27 02:17:46;;;;;;;8.60;6.80;;;;;;;16.80;60.87;99350.02;107344;1253;73839;-40
2023/05/27 02:20:15;;;;;;;7.30;6.40;;;;;;;16.83;61.05;99349.06;107352;1253;66624;-39
2023/05/27 02:22:43;;;;;;;9.40;5.90;;;;;;;16.82;61.28;99343.59;107459;1253;73161;-40
2023/05/27 02:25:12;;;;;;;9.10;6.00;;;;;;;16.86;61.58;99344.73;107456;1254;61254;-40
2023/05/27 02:27:41;;;;;;;8.70;6.60;;;;;;;16.97;61.62;99345.98;107489;1253;60433;-40
2023/05/27 02:30:10;;;;;;;18.20;6.30;;;;;;;17.02;61.27;99346.11;107469;1253;72563;-40
2023/05/27 02:32:38;;;;;;;7.40;6.40;;;;;;;17.01;61.22;99347.92;107425;1254;67620;-40
2023/05/27 02:35:08;;;;;;;9.80;6.90;;;;;;;17.02;61.26;99346.73;107365;1257;71392;-40
2023/05/27 02:37:36;;;;;;;10.30;7.00;;;;;;;17.07;60.97;99346.71;107417;1257;60444;-40
2023/05/27 02:40:05;;;;;;;8.80;7.10;;;;;;;17.09;60.84;99342.77;107494;1253;60473;-40
2023/05/27 02:42:33;;;;;;;13.80;7.00;;;;;;;17.11;60.83;99346.68;107362;1253;73914;-39
2023/05/27 02:45:01;;;;;;;13.20;7.10;;;;;;;17.12;60.91;99346.19;107370;1259;66817;-40
2023/05/27 02:47:28;;;;;;;9.70;6.60;;;;;;;17.12;60.89;99346.89;107487;1259;71345;-39
2023/05/27 02:49:56;;;;;;;8.30;6.90;;;;;;;17.12;61.18;99347.52;107381;1253;60290;-40
2023/05/27 02:52:24;;;;;;;12.40;7.00;;;;;;;17.11;61.62;99348.95;107405;1254;60301;-40
2023/05/27 02:54:52;;;;;;;7.50;6.80;;;;;;;17.11;61.78;99347.70;107341;1253;73882;-40
2023/05/27 02:57:20;;;;;;;9.60;6.90;;;;;;;17.15;61.74;99346.95;107390;1253;66614;-40
2023/05/27 02:59:48;;;;;;;10.30;6.70;;;;;;;17.21;61.68;99346.99;107390;1259;72531;-40
2023/05/27 03:02:16;;;;;;;11.20;7.30;;;;;;;17.25;61.63;99345.95;107372;1253;60333;-40
2023/05/27 03:04:44;;;;;;;8.50;7.10;;;;;;;17.27;61.34;99349.66;107340;1253;60502;-40
2023/05/27 03:07:11;;;;;;;8.50;7.30;;;;;;;17.26;61.36;99351.17;107341;1254;72567;-40
2023/05/27 03:09:39;;;;;;;8.70;7.40;;;;;;;17.19;61.64;99355.38;107426;1256;65298;-40
2023/05/27 03:12:07;;;;;;;9.80;7.80;;;;;;;17.10;62.00;99357.78;107361;1253;72693;-39
2023/05/27 03:14:34;;;;;;;9.20;7.20;;;;;;;17.07;62.32;99357.03;107407;1259;60464;-39
2023/05/27 03:17:02;;;;;;;11.70;7.20;;;;;;;17.09;62.45;99356.09;107461;1253;60316;-39
2023/05/27 03:19:30;;;;;;;8.80;6.30;;;;;;;17.12;62.68;99359.89;107430;1253;72554;-39
2023/05/27 03:21:58;;;;;;;6.90;6.20;;;;;;;17.18;62.86;99360.01;107369;1253;66284;-39
2023/05/27 03:24:26;;;;;;;9.50;6.90;;;;;;;17.28;62.89;99363.36;107479;1253;72780;-39
2023/05/27 03:26:54;;;;;;;9.10;6.90;;;;;;;17.37;62.84;99366.34;107421;1257;60418;-40
2023/05/27 03:29:21;;;;;;;9.20;7.00;;;;;;;17.44;62.76;99369.58;107373;1259;60598;-40
2023/05/27 03:31:49;;;;;;;10.20;7.30;;;;;;;17.52;62.78;99370.29;107338;1254;73852;-40
2023/05/27 03:34:19;;;;;;;11.00;7.20;;;;;;;17.59;62.54;99370.70;107467;1253;66486;-40
2023/05/27 03:36:47;;;;;;;10.60;7.20;;;;;;;17.63;62.43;99374.52;107383;1259;70483;-40
2023/05/27 03:39:16;;;;;;;11.70;7.70;;;;;;;17.67;62.41;99372.91;107482;1258;60282;-40
2023/05/27 03:41:48;;;;;;;11.50;7.50;;;;;;;17.69;62.46;99372.89;107368;1253;60371;-40
2023/05/27 03:44:17;;;;;;;9.10;7.10;;;;;;;17.70;62.70;99373.59;107486;1255;73883;-40
2023/05/27 03:46:44;;;;;;;11.50;7.00;;;;;;;17.74;62.74;99375.42;107346;1255;66315;-40
2023/05/27 03:49:13;;;;;;;9.90;7.20;;;;;;;17.81;62.82;99378.81;107432;1254;72678;-40
2023/05/27 03:51:41;;;;;;;9.60;7.30;;;;;;;17.88;63.00;99379.61;107486;1258;60431;-39
2023/05/27 03:54:08;;;;;;;10.30;7.10;;;;;;;17.96;62.95;99379.75;107331;1253;60261;-40
2023/05/27 03:56:36;;;;;;;9.80;7.40;;;;;;;18.04;62.96;99379.51;107361;1253;72553;-39
2023/05/27 03:59:04;;;;;;;10.60;7.10;;;;;;;18.13;63.00;99377.99;107326;1253;67891;-39
2023/05/27 04:01:32;;;;;;;10.50;7.50;;;;;;;18.24;62.88;99381.31;107357;1254;72755;-39
2023/05/27 04:03:59;;;;;;;9.00;7.40;;;;;;;18.33;62.78;99385.20;107367;1255;60504;-38
2023/05/27 04:06:31;;;;;;;8.80;6.70;;;;;;;18.42;62.58;99389.11;107494;1254;60422;-39
2023/05/27 04:08:59;;;;;;;12.30;7.50;;;;;;;18.52;62.83;99392.27;107336;1254;73851;-39
2023/05/27 04:11:27;;;;;;;10.10;7.10;;;;;;;18.64;62.28;99393.48;107455;1253;66272;-39
2023/05/27 04:13:54;;;;;;;11.00;7.60;;;;;;;18.74;62.18;99392.48;107521;1254;71470;-39
2023/05/27 04:16:24;;;;;;;10.90;7.10;;;;;;;18.85;61.88;99396.73;107361;1253;60479;-40
2023/05/27 04:18:52;;;;;;;10.50;7.60;;;;;;;18.95;61.81;99398.69;107392;1253;60278;-40
2023/05/27 04:21:20;;;;;;;8.60;7.40;;;;;;;19.06;61.70;99403.55;107480;1254;73261;-40
2023/05/27 04:23:48;;;;;;;11.00;7.40;;;;;;;19.18;61.20;99401.96;107486;1258;66311;-40
2023/05/27 04:26:16;;;;;;;10.60;7.50;;;;;;;19.27;60.76;99404.18;107446;1254;73179;-41
2023/05/27 04:28:48;;;;;;;11.80;8.10;;;;;;;19.35;60.03;99405.30;107349;1253;60196;-40
2023/05/27 04:31:15;;;;;;;9.60;8.20;;;;;;;19.41;59.45;99405.92;107406;1253;60394;-40
2023/05/27 04:33:53;;;;;;;10.10;7.90;;;;;;;19.46;59.36;99404.92;107378;1254;72590;-46
2023/05/27 04:36:25;;;;;;;10.20;7.90;;;;;;;19.49;59.31;99398.67;107449;1253;67063;-40
2023/05/27 04:39:02;;;;;;;9.10;7.80;;;;;;;19.59;59.24;99397.40;107468;1254;72711;-40
2023/05/27 04:41:32;;;;;;;11.90;8.10;;;;;;;19.68;59.33;99395.52;107357;1253;59961;-41
2023/05/27 04:44:03;;;;;;;8.90;7.70;;;;;;;19.76;58.89;99395.15;107357;1259;61023;-41
2023/05/27 04:46:34;;;;;;;10.20;7.90;;;;;;;19.81;58.77;99399.30;107388;1253;72556;-40
2023/05/27 04:49:02;;;;;;;14.90;7.70;;;;;;;19.86;58.78;99398.27;107514;1254;66623;-40
2023/05/27 04:51:32;;;;;;;;;;;;;;;19.92;58.43;99406.33;107551;1254;72741;-41
2023/05/27 04:54:00;;;;;;;11.40;8.00;;;;;;;19.93;57.75;99403.64;107334;1253;59804;-41
2023/05/27 04:56:28;;;;;;;10.20;7.50;;;;;;;19.92;57.81;99407.02;107480;1253;60347;-41
2023/05/27 04:58:58;;;;;;;12.40;8.70;;;;;;;19.98;57.91;99402.68;107381;1255;72580;-41
2023/05/27 05:01:39;;;;;;;9.90;8.00;;;;;;;19.99;57.71;99401.55;107491;1259;67520;-41
2023/05/27 05:04:13;;;;;;;12.60;7.90;;;;;;;19.99;57.93;99398.50;107457;1253;71472;-39
2023/05/27 05:06:45;;;;;;;10.50;8.80;;;;;;;19.98;58.07;99398.21;107424;1254;60435;-40
2023/05/27 05:09:13;;;;;;;9.40;7.50;;;;;;;19.99;57.98;99398.96;107482;1254;59174;-40
2023/05/27 05:11:41;;;;;;;11.50;8.60;;;;;;;19.99;57.74;99397.31;107536;1254;72628;-40
2023/05/27 05:14:08;;;;;;;9.40;8.40;;;;;;;19.98;57.66;99395.70;107373;1253;65798;-39
2023/05/27 05:16:36;;;;;;;11.50;8.10;;;;;;;19.98;58.06;99396.79;107480;1254;70458;-40
2023/05/27 05:19:04;;;;;;;16.30;8.20;;;;;;;20.00;58.41;99394.46;107368;1257;60624;-40
2023/05/27 05:21:36;;;;;;;14.70;7.90;;;;;;;20.06;57.84;99392.64;107320;1254;59297;-40
2023/05/27 05:24:05;;;;;;;;;;;;;;;20.15;57.84;99391.42;107503;1254;73911;-40
2023/05/27 05:26:32;;;;;;;15.60;7.60;;;;;;;20.19;57.70;99391.73;107366;1253;66297;-40
2023/05/27 05:29:01;;;;;;;11.40;8.10;;;;;;;20.25;57.80;99391.46;107489;1253;71421;-39
2023/05/27 05:31:28;;;;;;;10.70;7.50;;;;;;;20.40;57.85;99391.74;107341;1256;60418;-40
2023/05/27 05:33:57;;;;;;;9.60;7.70;;;;;;;20.54;57.72;99392.78;107592;1254;60450;-40
2023/05/27 05:36:25;;;;;;;18.00;7.90;;;;;;;20.68;57.34;99393.44;107492;1253;73975;-40
2023/05/27 05:38:56;;;;;;;10.40;7.90;;;;;;;20.82;57.09;99396.99;107405;1253;66377;-39
2023/05/27 05:41:23;;;;;;;9.40;7.80;;;;;;;20.93;56.58;99397.92;107338;1259;71117;-40
2023/05/27 05:43:52;;;;;;;9.40;8.00;;;;;;;21.03;56.35;99394.46;107482;1254;60425;-40
2023/05/27 05:46:20;;;;;;;9.80;7.50;;;;;;;21.15;56.38;99395.55;107393;1254;60300;-40
2023/05/27 05:48:51;;;;;;;10.10;8.30;;;;;;;21.27;55.80;99392.36;107492;1253;73955;-40
2023/05/27 05:51:24;;;;;;;11.10;7.50;;;;;;;21.41;55.39;99392.02;107391;1253;66658;-40
2023/05/27 05:53:55;;;;;;;10.10;7.20;;;;;;;21.54;55.34;99392.41;107313;1259;70734;-40
2023/05/27 05:56:23;;;;;;;11.70;7.50;;;;;;;21.68;54.72;99394.73;107331;1253;59580;-40
2023/05/27 05:58:51;;;;;;;9.40;7.70;;;;;;;21.77;54.20;99398.42;107363;1253;61092;-40
2023/05/27 06:01:19;;;;;;;10.90;8.10;;;;;;;21.81;53.83;99392.11;107449;1256;72574;-40
2023/05/27 06:03:46;;;;;;;9.20;7.20;;;;;;;21.83;53.85;99390.64;107476;1254;68340;-40
2023/05/27 06:06:26;;;;;;;10.00;7.60;;;;;;;21.88;54.22;99393.18;107471;1260;72653;-39
2023/05/27 06:09:12;;;;;;;11.20;7.80;;;;;;;21.94;54.50;99396.42;107444;1259;60442;-40
2023/05/27 06:11:40;;;;;;;10.40;7.80;;;;;;;21.94;54.00;99398.46;107468;1254;60283;-40
2023/05/27 06:14:08;;;;;;;12.80;7.80;;;;;;;21.91;53.51;99403.11;107374;1254;72579;-39
2023/05/27 06:16:36;;;;;;;11.10;8.00;;;;;;;21.87;53.76;99400.77;107344;1253;66767;-40
2023/05/27 06:19:03;;;;;;;11.90;7.80;;;;;;;21.86;54.26;99404.98;107342;1253;71924;-40
2023/05/27 06:21:32;;;;;;;12.50;8.50;;;;;;;21.87;54.82;99409.52;107512;1254;60159;-40
2023/05/27 06:24:35;;;;;;;10.60;8.00;;;;;;;21.90;54.06;99416.07;106956;1260;60463;-40
2023/05/27 06:27:35;;;;;;;9.70;8.60;;;;;;;21.83;53.61;99418.06;107221;1254;73859;-40
2023/05/27 06:30:06;;;;;;;11.60;8.20;;;;;;;21.76;54.11;99418.42;107337;1254;66419;-40
2023/05/27 06:32:35;;;;;;;10.70;8.00;;;;;;;21.75;54.05;99417.09;107311;1257;71454;-40
2023/05/27 06:35:04;;;;;;;10.80;8.20;;;;;;;21.74;54.03;99418.91;107288;1258;60540;-40
2023/05/27 06:37:32;;;;;;;12.30;8.70;;;;;;;21.73;54.06;99423.53;107518;1254;59227;-40
2023/05/27 06:40:00;;;;;;;11.20;8.10;;;;;;;21.73;54.02;99427.16;107489;1254;73902;-40
2023/05/27 06:42:28;;;;;;;10.20;8.20;;;;;;;21.72;54.13;99429.70;107481;1254;67601;-40
2023/05/27 06:45:14;;;;;;;11.10;8.80;;;;;;;21.73;54.14;99430.39;107469;1253;72689;-40
2023/05/27 06:47:42;;;;;;;10.00;8.50;;;;;;;21.74;54.20;99428.95;107471;1254;60409;-40
2023/05/27 06:50:10;;;;;;;10.40;8.20;;;;;;;21.75;54.49;99431.98;107478;1253;60424;-40
2023/05/27 06:52:38;;;;;;;10.40;8.70;;;;;;;21.75;54.32;99438.23;107492;1254;73926;-40
2023/05/27 06:55:12;;;;;;;10.60;8.80;;;;;;;21.74;54.44;99437.38;107318;1254;67890;-40
2023/05/27 06:57:58;;;;;;;10.20;8.00;;;;;;;21.73;54.16;99440.42;107463;1254;72666;-40
2023/05/27 07:00:34;;;;;;;15.40;8.40;;;;;;;21.69;54.30;99436.02;107428;1254;60428;-40
2023/05/27 07:03:22;;;;;;;10.90;8.10;;;;;;;21.72;54.31;99436.98;107385;1259;60277;-40
2023/05/27 07:05:51;;;;;;;10.20;8.30;;;;;;;21.71;54.24;99438.00;107374;1254;73605;-39
2023/05/27 07:08:19;;;;;;;13.60;8.90;;;;;;;21.75;53.64;99442.27;107339;1254;66955;-40
2023/05/27 07:10:47;;;;;;;10.40;7.90;;;;;;;21.78;53.57;99439.18;107311;1257;71417;-39
2023/05/27 07:13:15;;;;;;;15.20;8.50;;;;;;;21.80;53.69;99435.19;107297;1260;60385;-41
2023/05/27 07:15:47;;;;;;;9.10;7.80;;;;;;;21.86;53.73;99438.56;107517;1253;60197;-40
2023/05/27 07:18:15;;;;;;;10.70;8.60;;;;;;;21.94;53.29;99438.48;107325;1253;73856;-40
2023/05/27 07:20:43;;;;;;;10.90;8.10;;;;;;;22.04;52.92;99441.74;107372;1259;66322;-40
2023/05/27 07:23:11;;;;;;;13.10;8.30;;;;;;;22.17;53.25;99438.43;107385;1254;71423;-40
2023/05/27 07:25:39;;;;;;;9.10;7.90;;;;;;;22.28;53.05;99440.09;107335;1259;60424;-40
2023/05/27 07:28:07;;;;;;;10.20;8.30;;;;;;;22.39;53.02;99442.31;107375;1259;60432;-40
2023/05/27 07:30:39;;;;;;;11.30;8.80;;;;;;;22.47;52.13;99440.36;107335;1257;74324;-40
2023/05/27 07:33:07;;;;;;;9.60;7.90;;;;;;;22.54;52.43;99446.88;107331;1254;66430;-40
2023/05/27 07:35:35;;;;;;;9.50;8.50;;;;;;;22.57;52.28;99447.79;107467;1254;72710;-40
2023/05/27 07:38:03;;;;;;;11.00;8.00;;;;;;;22.61;52.31;99450.06;107450;1254;60267;-40
2023/05/27 07:40:30;;;;;;;10.40;8.80;;;;;;;22.63;51.99;99448.73;107319;1259;60300;-40
2023/05/27 07:42:58;;;;;;;11.70;8.40;;;;;;;22.66;52.29;99449.85;107298;1255;73841;-40
2023/05/27 07:45:26;;;;;;;10.30;8.60;;;;;;;22.68;52.04;99452.52;107488;1254;67545;-40
2023/05/27 07:47:53;;;;;;;12.10;8.40;;;;;;;22.68;51.68;99454.92;107145;1259;210253;-40
2023/05/27 07:51:31;;;;;;;11.00;8.60;;;;;;;22.71;51.55;99453.59;104103;1292;601064;-39
2023/05/27 07:54:00;;;;;;;;;;;;;;;22.69;51.88;99450.07;106649;1265;59356;-40
2023/05/27 07:56:28;;;;;;;10.90;8.20;;;;;;;22.63;52.16;99448.27;106648;1265;59237;-40
2023/05/27 07:58:56;;;;;;;11.40;7.70;;;;;;;22.60;51.42;99448.44;106646;1267;70994;-40
2023/05/27 08:01:24;;;;;;;8.80;7.50;;;;;;;22.63;50.79;99447.48;106668;1266;67508;-40
2023/05/27 08:03:52;;;;;;;11.00;7.50;;;;;;;22.63;50.94;99446.92;106593;1267;71416;-40
2023/05/27 08:06:36;;;;;;;9.50;7.40;;;;;;;22.63;51.00;99445.89;106400;1264;59506;-40
2023/05/27 08:09:23;;;;;;;9.30;7.40;;;;;;;22.63;51.00;99442.02;106670;1264;60059;-40
2023/05/27 08:12:29;;;;;;;9.10;7.10;;;;;;;22.69;51.68;99442.04;106422;1269;72324;-40
2023/05/27 08:15:11;;;;;;;8.80;7.70;;;;;;;22.76;51.64;99443.57;106474;1269;66687;-40
2023/05/27 08:18:05;;;;;;;11.30;7.60;;;;;;;22.82;50.91;99447.81;106347;1265;72768;-40
2023/05/27 08:20:43;;;;;;;11.60;7.40;;;;;;;22.86;50.85;99449.77;106729;1264;59541;-41
2023/05/27 08:23:35;;;;;;;12.20;7.60;;;;;;;22.88;51.00;99449.45;106681;1264;59595;-40
2023/05/27 08:26:22;;;;;;;8.40;7.50;;;;;;;22.90;51.06;99451.69;106736;1264;73083;-40
2023/05/27 08:29:30;;;;;;;8.50;7.50;;;;;;;22.95;51.35;99450.83;106702;1264;66756;-40
2023/05/27 08:32:08;;;;;;;11.70;7.90;;;;;;;23.00;50.81;99451.55;106765;1266;71449;-40
2023/05/27 08:34:36;;;;;;;9.70;7.80;;;;;;;23.02;50.56;99452.98;106777;1263;59623;-40
2023/05/27 08:37:05;;;;;;;9.60;7.30;;;;;;;23.05;50.73;99455.83;106774;1264;59602;-40
2023/05/27 08:39:38;;;;;;;9.50;7.20;;;;;;;23.09;50.55;99460.84;106784;1264;72248;-40
2023/05/27 08:42:15;;;;;;;10.70;8.20;;;;;;;23.11;49.97;99459.04;106706;1270;67614;-40
2023/05/27 08:44:45;;;;;;;10.30;8.20;;;;;;;23.11;49.84;99455.64;106780;1263;71440;-41
2023/05/27 08:47:14;;;;;;;9.60;7.80;;;;;;;23.11;49.50;99454.05;106828;1264;60144;-40
2023/05/27 08:49:42;;;;;;;8.60;7.50;;;;;;;23.11;49.25;99448.28;106772;1264;59599;-40
2023/05/27 08:52:10;;;;;;;8.20;7.30;;;;;;;23.14;49.59;99450.25;106706;1266;71773;-41
2023/05/27 08:54:39;;;;;;;9.60;8.20;;;;;;;23.15;49.82;99447.77;106766;1264;66638;-40
2023/05/27 08:57:07;;;;;;;14.90;7.80;;;;;;;23.15;50.50;99451.86;106734;1264;71477;-40
2023/05/27 08:59:35;;;;;;;14.40;8.00;;;;;;;23.14;50.32;99449.30;106790;1265;59624;-40
2023/05/27 09:02:04;;;;;;;12.90;8.20;;;;;;;23.13;50.46;99450.36;106605;1267;60002;-40
2023/05/27 09:04:32;;;;;;;9.70;7.70;;;;;;;23.13;50.14;99451.23;106745;1264;72253;-40
2023/05/27 09:07:00;;;;;;;11.10;7.30;;;;;;;23.13;49.92;99447.97;106737;1264;67897;-40
2023/05/27 09:09:28;;;;;;;9.70;7.40;;;;;;;23.10;50.15;99443.82;106747;1269;72739;-40
2023/05/27 09:11:59;;;;;;;15.80;7.60;;;;;;;23.07;50.46;99444.05;106753;1264;60106;-40
2023/05/27 09:14:28;;;;;;;10.50;7.80;;;;;;;23.07;50.94;99445.41;106798;1264;59781;-40
2023/05/27 09:16:56;;;;;;;8.70;7.40;;;;;;;23.08;50.94;99440.40;106793;1263;73166;-40
2023/05/27 09:19:24;;;;;;;9.40;7.20;;;;;;;23.08;50.53;99441.45;106772;1264;66786;-41
2023/05/27 09:21:55;;;;;;;10.10;7.60;;;;;;;23.07;50.11;99436.88;106735;1269;72727;-40
2023/05/27 09:24:23;;;;;;;10.00;7.10;;;;;;;23.12;50.20;99438.54;106786;1264;60051;-40
2023/05/27 09:26:52;;;;;;;9.20;7.40;;;;;;;23.17;49.40;99438.00;106758;1267;59474;-40
2023/05/27 09:29:20;;;;;;;8.50;6.90;;;;;;;23.22;48.95;99441.38;106777;1267;73094;-40
2023/05/27 09:31:47;;;;;;;9.30;7.10;;;;;;;23.29;48.95;99438.40;107125;1262;67582;-40
2023/05/27 09:34:16;;;;;;;10.30;6.70;;;;;;;23.37;48.71;99438.60;107226;1258;72714;-40
2023/05/27 09:36:44;;;;;;;8.40;6.40;;;;;;;23.48;48.31;99436.22;107260;1257;59353;-40
2023/05/27 09:39:13;;;;;;;10.60;7.00;;;;;;;23.59;47.07;99434.38;107223;1257;59575;-40
2023/05/27 09:41:41;;;;;;;12.10;6.70;;;;;;;23.70;47.15;99432.65;107281;1257;73080;-40
2023/05/27 09:44:09;;;;;;;8.60;7.20;;;;;;;23.81;47.14;99427.94;107230;1257;67916;-40
2023/05/27 09:46:36;;;;;;;9.50;7.10;;;;;;;23.95;47.36;99423.54;107197;1263;72679;-40
2023/05/27 09:49:04;;;;;;;9.70;6.50;;;;;;;24.10;47.77;99424.41;107221;1261;59585;-40
2023/05/27 09:51:32;;;;;;;8.80;7.40;;;;;;;24.30;47.50;99417.22;107061;1262;59570;-40
2023/05/27 09:53:59;;;;;;;8.90;7.30;;;;;;;24.48;46.81;99421.58;107073;1260;73050;-40
2023/05/27 09:56:28;;;;;;;11.20;6.30;;;;;;;24.56;46.08;99414.14;107012;1257;66334;-40
2023/05/27 09:58:56;;;;;;;7.80;7.00;;;;;;;24.61;45.81;99413.80;107134;1260;72703;-40
2023/05/27 10:01:25;;;;;;;19.90;7.60;;;;;;;24.64;45.95;99415.42;107138;1257;60104;-40
2023/05/27 10:03:53;;;;;;;7.70;6.90;;;;;;;24.70;46.07;99409.42;107268;1261;59651;-40
2023/05/27 10:06:21;;;;;;;9.90;6.50;;;;;;;24.79;45.94;99405.98;107034;1257;73090;-40
2023/05/27 10:08:49;;;;;;;9.20;6.50;;;;;;;24.92;44.24;99405.05;107144;1258;67599;-40
2023/05/27 10:11:16;;;;;;;9.60;6.00;;;;;;;25.04;42.94;99400.83;107082;1259;72020;-40
2023/05/27 10:13:44;;;;;;;10.40;6.30;;;;;;;25.18;42.68;99401.71;107194;1260;59350;-41
2023/05/27 10:16:20;;;;;;;7.80;6.90;;;;;;;25.36;43.21;99394.95;107134;1258;59510;-40
2023/05/27 10:18:52;;;;;;;8.10;6.50;;;;;;;25.60;42.84;99389.16;107221;1257;73123;-40
2023/05/27 10:21:21;;;;;;;8.90;6.90;;;;;;;25.85;42.45;99383.42;107117;1260;67727;-40
2023/05/27 10:23:59;;;;;;;8.00;6.30;;;;;;;26.11;42.79;99383.94;107270;1260;72756;-40
2023/05/27 10:26:40;;;;;;;9.60;6.50;;;;;;;26.38;42.42;99379.27;107124;1258;60169;-40
2023/05/27 10:29:17;;;;;;;10.10;7.00;;;;;;;26.60;41.66;99374.38;107123;1257;60073;-41
2023/05/27 10:31:45;;;;;;;10.80;6.70;;;;;;;26.80;41.02;99372.40;107114;1260;71778;-41
2023/05/27 10:34:16;;;;;;;8.10;6.90;;;;;;;26.94;41.18;99365.71;107117;1260;66601;-41
2023/05/27 10:36:45;;;;;;;8.20;6.80;;;;;;;27.07;41.04;99361.27;107109;1260;71430;-41
2023/05/27 10:39:16;;;;;;;8.90;5.90;;;;;;;27.23;40.48;99354.96;107114;1262;59673;-41
2023/05/27 10:41:50;;;;;;;7.00;6.30;;;;;;;27.38;40.11;99350.73;107080;1258;60039;-41
2023/05/27 10:44:28;;;;;;;13.00;6.70;;;;;;;27.55;39.27;99341.86;107144;1258;73070;-41
2023/05/27 10:47:02;;;;;;;8.30;6.40;;;;;;;27.77;39.94;99339.95;107232;1260;66613;-41
2023/05/27 10:49:35;;;;;;;9.90;6.10;;;;;;;28.04;39.68;99341.23;107114;1258;72712;-40
2023/05/27 10:52:13;;;;;;;11.10;6.00;;;;;;;28.14;37.98;99346.72;107255;1257;59566;-40
2023/05/27 10:54:50;;;;;;;11.40;6.30;;;;;;;28.08;37.36;99342.02;107248;1257;59625;-41
2023/05/27 10:57:18;;;;;;;11.70;6.10;;;;;;;28.00;36.99;99341.03;107303;1257;71827;-40
2023/05/27 10:59:49;;;;;;;8.80;6.60;;;;;;;27.95;37.24;99342.13;107189;1257;68006;-40
2023/05/27 11:02:17;;;;;;;9.40;6.50;;;;;;;28.02;36.94;99341.70;107259;1257;72746;-41
2023/05/27 11:04:45;;;;;;;7.60;6.60;;;;;;;28.15;37.13;99341.50;107291;1257;59483;-41
2023/05/27 11:07:13;;;;;;;8.00;6.30;;;;;;;28.21;37.00;99342.68;107240;1257;60018;-41
2023/05/27 11:09:47;;;;;;;8.30;6.10;;;;;;;28.17;36.80;99342.34;107061;1257;73081;-41
2023/05/27 11:12:18;;;;;;;12.00;6.20;;;;;;;28.16;37.23;99339.60;107253;1257;67872;-41
2023/05/27 11:14:53;;;;;;;9.20;6.10;;;;;;;28.29;37.11;99333.90;107237;1257;72807;-41
2023/05/27 11:17:21;;;;;;;7.60;5.80;;;;;;;28.46;36.83;99329.59;107072;1257;59599;-40
2023/05/27 11:19:49;;;;;;;7.80;6.00;;;;;;;28.65;35.97;99331.42;107356;1257;60019;-41
2023/05/27 11:22:18;;;;;;;7.50;5.90;;;;;;;28.94;36.12;99328.48;107218;1257;73495;-41
2023/05/27 11:24:56;;;;;;;9.90;5.90;;;;;;;29.29;34.07;99321.61;107248;1258;67599;-41
2023/05/27 11:27:24;;;;;;;6.10;5.40;;;;;;;29.51;33.63;99322.79;107264;1257;72684;-41
2023/05/27 11:29:52;;;;;;;6.80;5.70;;;;;;;29.72;33.10;99314.95;107231;1257;59635;-41
2023/05/27 11:32:20;;;;;;;6.60;5.60;;;;;;;29.99;32.87;99314.14;107221;1256;60040;-41
2023/05/27 11:34:48;;;;;;;7.70;5.50;;;;;;;30.25;32.97;99317.90;107253;1257;73034;-41
2023/05/27 11:37:16;;;;;;;9.30;6.10;;;;;;;30.35;32.34;99318.45;107230;1257;67193;-41